sensor_id;sensor_type;location;lat;lon;timestamp;pressure;altitude;pressure_sealevel;temperature;humidity
51452;BME280;37521;52.020;-1.740;2023-10-08T00:01:30;100714.00;;;9.64;100.00
51452;BME280;37521;52.020;-1.740;2023-10-08T00:04:01;100712.91;;;9.69;100.00
51452;BME280;37521;52.020;-1.740;2023-10-08T00:06:31;100708.44;;;9.73;100.00
51452;BME280;37521;52.020;-1.740;2023-10-08T00:09:01;100707.56;;;9.72;100.00
51452;BME280;37521;52.020;-1.740;2023-10-08T00:11:35;100709.28;;;9.73;100.00
51452;BME280;37521;52.020;-1.740;2023-10-08T00:14:04;100705.72;;;9.74;100.00
51452;BME280;37521;52.020;-1.740;2023-10-08T00:16:37;100696.03;;;9.76;100.00
51452;BME280;37521;52.020;-1.740;2023-10-08T00:19:07;100704.13;;;9.70;100.00
51452;BME280;37521;52.020;-1.740;2023-10-08T00:21:40;100706.13;;;9.62;100.00
51452;BME280;37521;52.020;-1.740;2023-10-08T00:24:13;100706.28;;;9.58;100.00
51452;BME280;37521;52.020;-1.740;2023-10-08T00:26:42;100718.53;;;9.59;100.00
51452;BME280;37521;52.020;-1.740;2023-10-08T00:29:11;100713.28;;;9.59;100.00
51452;BME280;37521;52.020;-1.740;2023-10-08T00:31:49;100722.97;;;9.58;100.00
51452;BME280;37521;52.020;-1.740;2023-10-08T00:34:17;100709.97;;;9.52;100.00
51452;BME280;37521;52.020;-1.740;2023-10-08T00:36:48;100706.72;;;9.42;100.00
51452;BME280;37521;52.020;-1.740;2023-10-08T00:39:18;100708.78;;;9.33;100.00
51452;BME280;37521;52.020;-1.740;2023-10-08T00:41:52;100706.22;;;9.31;100.00
51452;BME280;37521;52.020;-1.740;2023-10-08T00:44:27;100700.06;;;9.31;100.00
51452;BME280;37521;52.020;-1.740;2023-10-08T00:46:59;100694.03;;;9.27;100.00
51452;BME280;37521;52.020;-1.740;2023-10-08T00:49:29;100695.84;;;9.25;100.00
51452;BME280;37521;52.020;-1.740;2023-10-08T00:52:15;100703.81;;;9.23;100.00
51452;BME280;37521;52.020;-1.740;2023-10-08T00:54:58;100705.53;;;9.24;100.00
51452;BME280;37521;52.020;-1.740;2023-10-08T00:57:53;100701.16;;;9.23;100.00
51452;BME280;37521;52.020;-1.740;2023-10-08T01:00:25;100699.91;;;9.37;100.00
51452;BME280;37521;52.020;-1.740;2023-10-08T01:03:00;100704.06;;;9.44;100.00
51452;BME280;37521;52.020;-1.740;2023-10-08T01:05:29;100698.50;;;9.53;100.00
51452;BME280;37521;52.020;-1.740;2023-10-08T01:08:11;100698.00;;;9.68;100.00
51452;BME280;37521;52.020;-1.740;2023-10-08T01:10:50;100694.13;;;9.80;100.00
51452;BME280;37521;52.020;-1.740;2023-10-08T01:13:30;100695.31;;;9.98;100.00
51452;BME280;37521;52.020;-1.740;2023-10-08T01:16:03;100691.38;;;10.09;100.00
51452;BME280;37521;52.020;-1.740;2023-10-08T01:18:35;100698.16;;;10.18;100.00
51452;BME280;37521;52.020;-1.740;2023-10-08T01:21:04;100697.25;;;10.19;100.00
51452;BME280;37521;52.020;-1.740;2023-10-08T01:23:37;100695.34;;;10.24;100.00
51452;BME280;37521;52.020;-1.740;2023-10-08T01:26:06;100692.31;;;10.35;100.00
51452;BME280;37521;52.020;-1.740;2023-10-08T01:28:38;100696.44;;;10.44;100.00
51452;BME280;37521;52.020;-1.740;2023-10-08T01:31:10;100698.03;;;10.48;100.00
51452;BME280;37521;52.020;-1.740;2023-10-08T01:33:40;100704.19;;;10.48;100.00
51452;BME280;37521;52.020;-1.740;2023-10-08T01:36:14;100709.31;;;10.53;100.00
51452;BME280;37521;52.020;-1.740;2023-10-08T01:38:44;100706.66;;;10.53;100.00
51452;BME280;37521;52.020;-1.740;2023-10-08T01:41:16;100706.88;;;10.47;100.00
51452;BME280;37521;52.020;-1.740;2023-10-08T01:43:47;100708.28;;;10.32;100.00
51452;BME280;37521;52.020;-1.740;2023-10-08T01:46:17;100710.44;;;10.19;100.00
51452;BME280;37521;52.020;-1.740;2023-10-08T01:48:49;100713.38;;;10.10;100.00
51452;BME280;37521;52.020;-1.740;2023-10-08T01:51:22;100713.66;;;10.01;100.00
51452;BME280;37521;52.020;-1.740;2023-10-08T01:54:04;100705.03;;;9.96;100.00
51452;BME280;37521;52.020;-1.740;2023-10-08T01:56:38;100702.50;;;9.93;100.00
51452;BME280;37521;52.020;-1.740;2023-10-08T01:59:10;100708.69;;;9.92;100.00
51452;BME280;37521;52.020;-1.740;2023-10-08T02:01:39;100707.94;;;9.88;100.00
51452;BME280;37521;52.020;-1.740;2023-10-08T02:04:08;100711.59;;;9.84;100.00
51452;BME280;37521;52.020;-1.740;2023-10-08T02:06:39;100703.81;;;9.79;100.00
51452;BME280;37521;52.020;-1.740;2023-10-08T02:09:09;100700.25;;;9.80;100.00
51452;BME280;37521;52.020;-1.740;2023-10-08T02:11:42;100699.53;;;9.75;100.00
51452;BME280;37521;52.020;-1.740;2023-10-08T02:14:11;100703.88;;;9.78;100.00
51452;BME280;37521;52.020;-1.740;2023-10-08T02:16:43;100706.69;;;9.72;100.00
51452;BME280;37521;52.020;-1.740;2023-10-08T02:19:11;100710.69;;;9.57;100.00
51452;BME280;37521;52.020;-1.740;2023-10-08T02:21:40;100710.44;;;9.37;100.00
51452;BME280;37521;52.020;-1.740;2023-10-08T02:24:14;100708.09;;;9.26;100.00
51452;BME280;37521;52.020;-1.740;2023-10-08T02:26:44;100716.06;;;9.24;100.00
51452;BME280;37521;52.020;-1.740;2023-10-08T02:29:13;100710.00;;;9.21;100.00
51452;BME280;37521;52.020;-1.740;2023-10-08T02:31:42;100717.06;;;9.20;100.00
51452;BME280;37521;52.020;-1.740;2023-10-08T02:34:10;100713.44;;;9.24;100.00
51452;BME280;37521;52.020;-1.740;2023-10-08T02:36:40;100721.28;;;9.26;100.00
51452;BME280;37521;52.020;-1.740;2023-10-08T02:39:10;100718.69;;;9.24;100.00
51452;BME280;37521;52.020;-1.740;2023-10-08T02:41:46;100728.31;;;9.25;100.00
51452;BME280;37521;52.020;-1.740;2023-10-08T02:44:15;100721.41;;;9.21;100.00
51452;BME280;37521;52.020;-1.740;2023-10-08T02:46:45;100727.66;;;9.19;100.00
51452;BME280;37521;52.020;-1.740;2023-10-08T02:49:15;100730.41;;;9.14;100.00
51452;BME280;37521;52.020;-1.740;2023-10-08T02:51:48;100732.41;;;9.06;100.00
51452;BME280;37521;52.020;-1.740;2023-10-08T02:54:18;100743.31;;;8.92;100.00
51452;BME280;37521;52.020;-1.740;2023-10-08T02:56:50;100748.28;;;8.72;100.00
51452;BME280;37521;52.020;-1.740;2023-10-08T02:59:19;100754.66;;;8.62;100.00
51452;BME280;37521;52.020;-1.740;2023-10-08T03:01:50;100758.22;;;8.61;100.00
51452;BME280;37521;52.020;-1.740;2023-10-08T03:04:23;100759.91;;;8.63;100.00
51452;BME280;37521;52.020;-1.740;2023-10-08T03:06:55;100757.31;;;8.62;100.00
51452;BME280;37521;52.020;-1.740;2023-10-08T03:09:23;100755.69;;;8.58;100.00
51452;BME280;37521;52.020;-1.740;2023-10-08T03:11:55;100753.91;;;8.58;100.00
51452;BME280;37521;52.020;-1.740;2023-10-08T03:14:25;100752.19;;;8.57;100.00
51452;BME280;37521;52.020;-1.740;2023-10-08T03:16:54;100750.47;;;8.55;100.00
51452;BME280;37521;52.020;-1.740;2023-10-08T03:19:34;100752.25;;;8.54;100.00
51452;BME280;37521;52.020;-1.740;2023-10-08T03:22:05;100755.03;;;8.48;100.00
51452;BME280;37521;52.020;-1.740;2023-10-08T03:24:32;100762.13;;;8.46;100.00
51452;BME280;37521;52.020;-1.740;2023-10-08T03:27:08;100763.22;;;8.37;100.00
51452;BME280;37521;52.020;-1.740;2023-10-08T03:29:42;100763.41;;;8.28;100.00
51452;BME280;37521;52.020;-1.740;2023-10-08T03:32:14;100765.16;;;8.28;100.00
51452;BME280;37521;52.020;-1.740;2023-10-08T03:34:44;100766.97;;;8.26;100.00
51452;BME280;37521;52.020;-1.740;2023-10-08T03:37:15;100773.16;;;8.25;100.00
51452;BME280;37521;52.020;-1.740;2023-10-08T03:39:48;100763.50;;;8.25;100.00
51452;BME280;37521;52.020;-1.740;2023-10-08T03:42:22;100765.22;;;8.26;100.00
51452;BME280;37521;52.020;-1.740;2023-10-08T03:44:51;100771.91;;;8.02;100.00
51452;BME280;37521;52.020;-1.740;2023-10-08T03:47:21;100766.09;;;7.89;100.00
51452;BME280;37521;52.020;-1.740;2023-10-08T03:49:53;100766.97;;;7.90;100.00
51452;BME280;37521;52.020;-1.740;2023-10-08T03:52:22;100767.75;;;7.93;100.00
51452;BME280;37521;52.020;-1.740;2023-10-08T03:54:53;100765.28;;;7.86;100.00
51452;BME280;37521;52.020;-1.740;2023-10-08T03:57:33;100771.69;;;7.76;100.00
51452;BME280;37521;52.020;-1.740;2023-10-08T04:00:18;100771.59;;;7.79;100.00
51452;BME280;37521;52.020;-1.740;2023-10-08T04:02:55;100761.84;;;7.84;100.00
51452;BME280;37521;52.020;-1.740;2023-10-08T04:05:28;100762.66;;;7.86;100.00
51452;BME280;37521;52.020;-1.740;2023-10-08T04:08:07;100762.66;;;7.86;100.00
51452;BME280;37521;52.020;-1.740;2023-10-08T04:10:48;100759.94;;;7.89;100.00
51452;BME280;37521;52.020;-1.740;2023-10-08T04:13:35;100770.47;;;7.90;100.00
51452;BME280;37521;52.020;-1.740;2023-10-08T04:16:12;100765.97;;;7.94;100.00
51452;BME280;37521;52.020;-1.740;2023-10-08T04:18:46;100765.38;;;7.83;100.00
51452;BME280;37521;52.020;-1.740;2023-10-08T04:21:18;100762.97;;;7.72;100.00
51452;BME280;37521;52.020;-1.740;2023-10-08T04:23:48;100754.38;;;7.65;100.00
51452;BME280;37521;52.020;-1.740;2023-10-08T04:26:20;100754.47;;;7.61;100.00
51452;BME280;37521;52.020;-1.740;2023-10-08T04:28:53;100755.41;;;7.58;100.00
51452;BME280;37521;52.020;-1.740;2023-10-08T04:31:25;100755.47;;;7.55;100.00
51452;BME280;37521;52.020;-1.740;2023-10-08T04:33:55;100758.00;;;7.60;100.00
51452;BME280;37521;52.020;-1.740;2023-10-08T04:36:27;100755.31;;;7.61;100.00
51452;BME280;37521;52.020;-1.740;2023-10-08T04:38:56;100753.59;;;7.60;100.00
51452;BME280;37521;52.020;-1.740;2023-10-08T04:41:31;100759.84;;;7.55;100.00
51452;BME280;37521;52.020;-1.740;2023-10-08T04:44:02;100749.56;;;7.46;100.00
51452;BME280;37521;52.020;-1.740;2023-10-08T04:46:38;100750.53;;;7.40;100.00
51452;BME280;37521;52.020;-1.740;2023-10-08T04:49:15;100753.88;;;7.48;100.00
51452;BME280;37521;52.020;-1.740;2023-10-08T04:51:55;100754.78;;;7.47;100.00
51452;BME280;37521;52.020;-1.740;2023-10-08T04:54:27;100753.22;;;7.38;100.00
51452;BME280;37521;52.020;-1.740;2023-10-08T04:56:58;100755.16;;;7.30;100.00
51452;BME280;37521;52.020;-1.740;2023-10-08T04:59:31;100749.94;;;7.27;100.00
51452;BME280;37521;52.020;-1.740;2023-10-08T05:02:03;100754.19;;;7.33;100.00
51452;BME280;37521;52.020;-1.740;2023-10-08T05:04:48;100751.53;;;7.36;100.00
51452;BME280;37521;52.020;-1.740;2023-10-08T05:07:49;100754.28;;;7.28;100.00
51452;BME280;37521;52.020;-1.740;2023-10-08T05:10:56;100756.88;;;7.31;100.00
51452;BME280;37521;52.020;-1.740;2023-10-08T05:13:41;100745.41;;;7.34;100.00
51452;BME280;37521;52.020;-1.740;2023-10-08T05:16:28;100742.75;;;7.35;100.00
51452;BME280;37521;52.020;-1.740;2023-10-08T05:19:16;100743.56;;;7.39;100.00
51452;BME280;37521;52.020;-1.740;2023-10-08T05:22:15;100730.34;;;7.44;100.00
51452;BME280;37521;52.020;-1.740;2023-10-08T05:25:10;100730.06;;;7.56;100.00
51452;BME280;37521;52.020;-1.740;2023-10-08T05:27:53;100727.28;;;7.63;100.00
51452;BME280;37521;52.020;-1.740;2023-10-08T05:30:26;100722.66;;;7.73;100.00
51452;BME280;37521;52.020;-1.740;2023-10-08T05:33:06;100718.97;;;7.80;100.00
51452;BME280;37521;52.020;-1.740;2023-10-08T05:35:41;100714.59;;;7.81;100.00
51452;BME280;37521;52.020;-1.740;2023-10-08T05:38:22;100707.44;;;7.86;100.00
51452;BME280;37521;52.020;-1.740;2023-10-08T05:41:05;100709.97;;;7.90;100.00
51452;BME280;37521;52.020;-1.740;2023-10-08T05:43:56;100715.81;;;8.03;100.00
51452;BME280;37521;52.020;-1.740;2023-10-08T05:46:38;100711.81;;;8.23;100.00
51452;BME280;37521;52.020;-1.740;2023-10-08T05:49:50;100699.59;;;8.54;100.00
51452;BME280;37521;52.020;-1.740;2023-10-08T05:52:55;100705.81;;;8.84;100.00
51452;BME280;37521;52.020;-1.740;2023-10-08T05:55:42;100705.94;;;9.09;100.00
51452;BME280;37521;52.020;-1.740;2023-10-08T05:58:14;100698.31;;;9.31;100.00
51452;BME280;37521;52.020;-1.740;2023-10-08T06:00:53;100704.09;;;9.42;100.00
51452;BME280;37521;52.020;-1.740;2023-10-08T06:03:33;100705.59;;;9.51;100.00
51452;BME280;37521;52.020;-1.740;2023-10-08T06:06:06;100699.31;;;9.55;100.00
51452;BME280;37521;52.020;-1.740;2023-10-08T06:08:49;100701.13;;;9.53;100.00
51452;BME280;37521;52.020;-1.740;2023-10-08T06:11:48;100701.13;;;9.53;100.00
51452;BME280;37521;52.020;-1.740;2023-10-08T06:14:36;100695.00;;;9.52;100.00
51452;BME280;37521;52.020;-1.740;2023-10-08T06:17:21;100698.56;;;9.51;100.00
51452;BME280;37521;52.020;-1.740;2023-10-08T06:20:02;100701.31;;;9.47;100.00
51452;BME280;37521;52.020;-1.740;2023-10-08T06:22:36;100696.53;;;9.32;100.00
51452;BME280;37521;52.020;-1.740;2023-10-08T06:25:06;100702.16;;;9.19;100.00
51452;BME280;37521;52.020;-1.740;2023-10-08T06:27:51;100693.63;;;9.11;100.00
51452;BME280;37521;52.020;-1.740;2023-10-08T06:30:23;100693.81;;;9.05;100.00
51452;BME280;37521;52.020;-1.740;2023-10-08T06:32:53;100700.09;;;8.99;100.00
51452;BME280;37521;52.020;-1.740;2023-10-08T06:35:21;100705.47;;;8.96;100.00
51452;BME280;37521;52.020;-1.740;2023-10-08T06:37:52;100703.00;;;8.90;100.00
51452;BME280;37521;52.020;-1.740;2023-10-08T06:40:26;100703.88;;;8.89;100.00
51452;BME280;37521;52.020;-1.740;2023-10-08T06:43:10;100703.03;;;8.89;100.00
51452;BME280;37521;52.020;-1.740;2023-10-08T06:45:52;100712.69;;;8.88;100.00
51452;BME280;37521;52.020;-1.740;2023-10-08T06:48:22;100717.22;;;8.85;100.00
51452;BME280;37521;52.020;-1.740;2023-10-08T06:50:52;100711.19;;;8.80;100.00
51452;BME280;37521;52.020;-1.740;2023-10-08T06:53:25;100706.75;;;8.82;100.00
51452;BME280;37521;52.020;-1.740;2023-10-08T06:55:57;100715.47;;;8.84;100.00
51452;BME280;37521;52.020;-1.740;2023-10-08T06:58:30;100702.22;;;8.87;100.00
51452;BME280;37521;52.020;-1.740;2023-10-08T07:01:01;100709.16;;;8.89;100.00
51452;BME280;37521;52.020;-1.740;2023-10-08T07:03:34;100706.56;;;8.88;100.00
51452;BME280;37521;52.020;-1.740;2023-10-08T07:06:05;100708.28;;;8.89;100.00
51452;BME280;37521;52.020;-1.740;2023-10-08T07:08:44;100705.66;;;8.90;100.00
51452;BME280;37521;52.020;-1.740;2023-10-08T07:11:20;100706.41;;;8.94;100.00
51452;BME280;37521;52.020;-1.740;2023-10-08T07:13:49;100699.25;;;8.99;100.00
51452;BME280;37521;52.020;-1.740;2023-10-08T07:16:18;100702.69;;;9.01;100.00
51452;BME280;37521;52.020;-1.740;2023-10-08T07:18:49;100704.50;;;8.99;100.00
51452;BME280;37521;52.020;-1.740;2023-10-08T07:21:19;100709.84;;;8.96;100.00
51452;BME280;37521;52.020;-1.740;2023-10-08T07:23:55;100708.22;;;8.92;100.00
51452;BME280;37521;52.020;-1.740;2023-10-08T07:26:25;100710.13;;;8.87;100.00
51452;BME280;37521;52.020;-1.740;2023-10-08T07:29:04;100710.38;;;8.78;100.00
51452;BME280;37521;52.020;-1.740;2023-10-08T07:31:36;100712.09;;;8.79;100.00
51452;BME280;37521;52.020;-1.740;2023-10-08T07:34:10;100720.81;;;8.81;100.00
51452;BME280;37521;52.020;-1.740;2023-10-08T07:36:54;100722.47;;;8.85;100.00
51452;BME280;37521;52.020;-1.740;2023-10-08T07:39:23;100720.59;;;8.88;100.00
51452;BME280;37521;52.020;-1.740;2023-10-08T07:42:03;100716.06;;;8.93;100.00
51452;BME280;37521;52.020;-1.740;2023-10-08T07:44:35;100722.94;;;8.99;100.00
51452;BME280;37521;52.020;-1.740;2023-10-08T07:47:06;100720.03;;;9.08;100.00
51452;BME280;37521;52.020;-1.740;2023-10-08T07:49:39;100722.44;;;9.16;100.00
51452;BME280;37521;52.020;-1.740;2023-10-08T07:52:10;100719.63;;;9.23;100.00
51452;BME280;37521;52.020;-1.740;2023-10-08T07:54:44;100724.72;;;9.30;100.00
51452;BME280;37521;52.020;-1.740;2023-10-08T07:57:12;100732.22;;;9.42;100.00
51452;BME280;37521;52.020;-1.740;2023-10-08T07:59:46;100737.06;;;9.57;100.00
51452;BME280;37521;52.020;-1.740;2023-10-08T08:02:16;100735.09;;;9.64;100.00
51452;BME280;37521;52.020;-1.740;2023-10-08T08:04:51;100738.34;;;9.72;100.00
51452;BME280;37521;52.020;-1.740;2023-10-08T08:07:20;100744.28;;;9.78;100.00
51452;BME280;37521;52.020;-1.740;2023-10-08T08:09:50;100741.47;;;9.85;100.00
51452;BME280;37521;52.020;-1.740;2023-10-08T08:12:20;100738.72;;;9.88;100.00
51452;BME280;37521;52.020;-1.740;2023-10-08T08:14:50;100742.09;;;9.93;100.00
51452;BME280;37521;52.020;-1.740;2023-10-08T08:17:19;100733.91;;;10.00;100.00
51452;BME280;37521;52.020;-1.740;2023-10-08T08:19:52;100734.63;;;10.05;100.00
51452;BME280;37521;52.020;-1.740;2023-10-08T08:22:21;100739.72;;;10.12;100.00
51452;BME280;37521;52.020;-1.740;2023-10-08T08:24:51;100730.63;;;10.20;100.00
51452;BME280;37521;52.020;-1.740;2023-10-08T08:27:32;100734.66;;;10.32;100.00
51452;BME280;37521;52.020;-1.740;2023-10-08T08:30:01;100727.41;;;10.39;100.00
51452;BME280;37521;52.020;-1.740;2023-10-08T08:32:39;100732.28;;;10.51;100.00
51452;BME280;37521;52.020;-1.740;2023-10-08T08:35:12;100734.47;;;10.63;100.00
51452;BME280;37521;52.020;-1.740;2023-10-08T08:37:44;100743.88;;;10.72;100.00
51452;BME280;37521;52.020;-1.740;2023-10-08T08:40:13;100746.09;;;10.82;100.00
51452;BME280;37521;52.020;-1.740;2023-10-08T08:42:46;100747.41;;;10.96;100.00
51452;BME280;37521;52.020;-1.740;2023-10-08T08:45:21;100752.25;;;11.08;100.00
51452;BME280;37521;52.020;-1.740;2023-10-08T08:47:51;100751.56;;;11.26;100.00
51452;BME280;37521;52.020;-1.740;2023-10-08T08:50:22;100759.97;;;11.37;100.00
51452;BME280;37521;52.020;-1.740;2023-10-08T08:52:53;100761.34;;;11.48;100.00
51452;BME280;37521;52.020;-1.740;2023-10-08T08:55:21;100760.75;;;11.63;100.00
51452;BME280;37521;52.020;-1.740;2023-10-08T08:57:50;100760.16;;;11.78;100.00
51452;BME280;37521;52.020;-1.740;2023-10-08T09:00:20;100761.31;;;11.94;100.00
51452;BME280;37521;52.020;-1.740;2023-10-08T09:02:48;100764.38;;;12.06;100.00
51452;BME280;37521;52.020;-1.740;2023-10-08T09:05:17;100762.16;;;12.17;100.00
51452;BME280;37521;52.020;-1.740;2023-10-08T09:07:57;100765.38;;;12.25;100.00
51452;BME280;37521;52.020;-1.740;2023-10-08T09:10:31;100758.06;;;12.30;100.00
51452;BME280;37521;52.020;-1.740;2023-10-08T09:13:05;100768.41;;;12.36;100.00
51452;BME280;37521;52.020;-1.740;2023-10-08T09:15:35;100767.22;;;12.43;100.00
51452;BME280;37521;52.020;-1.740;2023-10-08T09:18:05;100772.22;;;12.51;100.00
51452;BME280;37521;52.020;-1.740;2023-10-08T09:20:36;100772.84;;;12.58;100.00
51452;BME280;37521;52.020;-1.740;2023-10-08T09:23:13;100778.66;;;12.66;100.00
51452;BME280;37521;52.020;-1.740;2023-10-08T09:25:45;100775.75;;;12.72;100.00
51452;BME280;37521;52.020;-1.740;2023-10-08T09:28:18;100782.38;;;12.82;100.00
51452;BME280;37521;52.020;-1.740;2023-10-08T09:30:48;100767.66;;;12.95;100.00
51452;BME280;37521;52.020;-1.740;2023-10-08T09:33:19;100783.88;;;13.08;100.00
51452;BME280;37521;52.020;-1.740;2023-10-08T09:35:48;100781.50;;;13.22;100.00
51452;BME280;37521;52.020;-1.740;2023-10-08T09:38:20;100781.53;;;13.41;100.00
51452;BME280;37521;52.020;-1.740;2023-10-08T09:40:52;100777.53;;;13.51;100.00
51452;BME280;37521;52.020;-1.740;2023-10-08T09:43:21;100786.94;;;13.58;100.00
51452;BME280;37521;52.020;-1.740;2023-10-08T09:45:53;100778.25;;;13.55;100.00
51452;BME280;37521;52.020;-1.740;2023-10-08T09:48:25;100777.47;;;13.53;100.00
51452;BME280;37521;52.020;-1.740;2023-10-08T09:50:55;100774.94;;;13.50;100.00
51452;BME280;37521;52.020;-1.740;2023-10-08T09:53:35;100772.38;;;13.48;100.00
51452;BME280;37521;52.020;-1.740;2023-10-08T09:56:12;100771.50;;;13.48;100.00
51452;BME280;37521;52.020;-1.740;2023-10-08T09:58:43;100777.53;;;13.51;100.00
51452;BME280;37521;52.020;-1.740;2023-10-08T10:01:13;100768.50;;;13.55;100.00
51452;BME280;37521;52.020;-1.740;2023-10-08T10:03:44;100778.91;;;13.60;100.00
51452;BME280;37521;52.020;-1.740;2023-10-08T10:06:13;100773.44;;;13.63;100.00
51452;BME280;37521;52.020;-1.740;2023-10-08T10:08:44;100782.13;;;13.67;100.00
51452;BME280;37521;52.020;-1.740;2023-10-08T10:11:13;100771.34;;;13.70;100.00
51452;BME280;37521;52.020;-1.740;2023-10-08T10:13:43;100770.09;;;13.78;100.00
51452;BME280;37521;52.020;-1.740;2023-10-08T10:16:17;100773.88;;;13.92;100.00
51452;BME280;37521;52.020;-1.740;2023-10-08T10:18:49;100780.53;;;14.00;100.00
51452;BME280;37521;52.020;-1.740;2023-10-08T10:21:31;100771.03;;;14.13;100.00
51452;BME280;37521;52.020;-1.740;2023-10-08T10:24:02;100768.59;;;14.45;100.00
51452;BME280;37521;52.020;-1.740;2023-10-08T10:26:34;100762.84;;;14.54;100.00
51452;BME280;37521;52.020;-1.740;2023-10-08T10:29:23;100765.09;;;14.62;100.00
51452;BME280;37521;52.020;-1.740;2023-10-08T10:31:54;100750.81;;;14.97;100.00
51452;BME280;37521;52.020;-1.740;2023-10-08T10:34:25;100747.84;;;15.04;100.00
51452;BME280;37521;52.020;-1.740;2023-10-08T10:36:56;100753.78;;;15.09;100.00
51452;BME280;37521;52.020;-1.740;2023-10-08T10:39:27;100745.50;;;15.15;100.00
51452;BME280;37521;52.020;-1.740;2023-10-08T10:41:58;100734.97;;;15.29;100.00
51452;BME280;37521;52.020;-1.740;2023-10-08T10:44:31;100742.03;;;15.46;100.00
51452;BME280;37521;52.020;-1.740;2023-10-08T10:47:03;100730.03;;;15.70;100.00
51452;BME280;37521;52.020;-1.740;2023-10-08T10:49:50;100729.72;;;15.92;100.00
51452;BME280;37521;52.020;-1.740;2023-10-08T10:52:23;100742.38;;;16.19;100.00
51452;BME280;37521;52.020;-1.740;2023-10-08T10:55:02;100740.59;;;16.49;100.00
51452;BME280;37521;52.020;-1.740;2023-10-08T10:57:48;100736.50;;;16.74;100.00
51452;BME280;37521;52.020;-1.740;2023-10-08T11:00:24;100740.63;;;16.94;100.00
51452;BME280;37521;52.020;-1.740;2023-10-08T11:03:09;100743.88;;;17.13;100.00
51452;BME280;37521;52.020;-1.740;2023-10-08T11:05:46;100751.03;;;17.27;100.00
51452;BME280;37521;52.020;-1.740;2023-10-08T11:08:19;100747.88;;;17.34;100.00
51452;BME280;37521;52.020;-1.740;2023-10-08T11:10:52;100757.56;;;17.50;100.00
51452;BME280;37521;52.020;-1.740;2023-10-08T11:13:26;100766.06;;;17.56;100.00
51452;BME280;37521;52.020;-1.740;2023-10-08T11:16:05;100762.63;;;17.68;100.00
51452;BME280;37521;52.020;-1.740;2023-10-08T11:18:35;100761.19;;;17.77;100.00
51452;BME280;37521;52.020;-1.740;2023-10-08T11:21:06;100756.78;;;17.90;100.00
51452;BME280;37521;52.020;-1.740;2023-10-08T11:23:44;100755.97;;;18.03;100.00
51452;BME280;37521;52.020;-1.740;2023-10-08T11:26:22;100745.97;;;18.06;100.00
51452;BME280;37521;52.020;-1.740;2023-10-08T11:29:00;100740.50;;;18.08;100.00
51452;BME280;37521;52.020;-1.740;2023-10-08T11:31:30;100735.09;;;18.22;100.00
51452;BME280;37521;52.020;-1.740;2023-10-08T11:34:03;100726.38;;;18.45;100.00
51452;BME280;37521;52.020;-1.740;2023-10-08T11:36:37;100729.81;;;18.47;100.00
51452;BME280;37521;52.020;-1.740;2023-10-08T11:39:16;100714.22;;;18.54;100.00
51452;BME280;37521;52.020;-1.740;2023-10-08T11:41:58;100717.69;;;18.69;100.00
51452;BME280;37521;52.020;-1.740;2023-10-08T11:44:30;100705.72;;;18.74;100.00
51452;BME280;37521;52.020;-1.740;2023-10-08T11:47:04;100711.19;;;18.73;100.00
51452;BME280;37521;52.020;-1.740;2023-10-08T11:49:39;100713.63;;;18.76;100.00
51452;BME280;37521;52.020;-1.740;2023-10-08T11:52:15;100707.84;;;18.82;100.00
51452;BME280;37521;52.020;-1.740;2023-10-08T11:54:44;100708.72;;;18.83;100.00
51452;BME280;37521;52.020;-1.740;2023-10-08T11:57:16;100710.22;;;18.99;100.00
51452;BME280;37521;52.020;-1.740;2023-10-08T11:59:49;100703.13;;;19.11;100.00
51452;BME280;37521;52.020;-1.740;2023-10-08T12:02:22;100703.41;;;19.32;100.00
51452;BME280;37521;52.020;-1.740;2023-10-08T12:04:51;100698.69;;;19.61;100.00
51452;BME280;37521;52.020;-1.740;2023-10-08T12:07:20;100701.75;;;19.92;100.00
51452;BME280;37521;52.020;-1.740;2023-10-08T12:09:55;100702.28;;;20.21;100.00
51452;BME280;37521;52.020;-1.740;2023-10-08T12:12:24;100710.69;;;20.51;100.00
51452;BME280;37521;52.020;-1.740;2023-10-08T12:14:54;100691.44;;;20.57;100.00
51452;BME280;37521;52.020;-1.740;2023-10-08T12:17:23;100689.00;;;20.54;100.00
51452;BME280;37521;52.020;-1.740;2023-10-08T12:20:06;100682.00;;;20.40;100.00
51452;BME280;37521;52.020;-1.740;2023-10-08T12:22:50;100683.53;;;20.32;100.00
51452;BME280;37521;52.020;-1.740;2023-10-08T12:25:19;100687.06;;;20.32;100.00
51452;BME280;37521;52.020;-1.740;2023-10-08T12:27:49;100684.75;;;20.28;100.00
51452;BME280;37521;52.020;-1.740;2023-10-08T12:30:17;100689.72;;;20.21;100.00
51452;BME280;37521;52.020;-1.740;2023-10-08T12:32:46;100694.47;;;20.18;100.00
51452;BME280;37521;52.020;-1.740;2023-10-08T12:35:14;100697.41;;;20.26;100.00
51452;BME280;37521;52.020;-1.740;2023-10-08T12:37:43;100692.94;;;20.37;100.00
51452;BME280;37521;52.020;-1.740;2023-10-08T12:40:12;100687.19;;;20.55;100.00
51452;BME280;37521;52.020;-1.740;2023-10-08T12:42:52;100677.22;;;20.68;100.00
51452;BME280;37521;52.020;-1.740;2023-10-08T12:45:21;100679.03;;;20.79;100.00
51452;BME280;37521;52.020;-1.740;2023-10-08T12:47:50;100667.84;;;21.07;100.00
51452;BME280;37521;52.020;-1.740;2023-10-08T12:50:20;100675.44;;;21.36;100.00
51452;BME280;37521;52.020;-1.740;2023-10-08T12:52:57;100665.16;;;21.41;100.00
51452;BME280;37521;52.020;-1.740;2023-10-08T12:55:31;100659.28;;;21.25;100.00
51452;BME280;37521;52.020;-1.740;2023-10-08T12:58:08;100654.16;;;21.10;100.00
51452;BME280;37521;52.020;-1.740;2023-10-08T13:00:37;100642.94;;;20.83;100.00
51452;BME280;37521;52.020;-1.740;2023-10-08T13:03:09;100653.66;;;20.60;100.00
51452;BME280;37521;52.020;-1.740;2023-10-08T13:05:42;100653.22;;;20.42;100.00
51452;BME280;37521;52.020;-1.740;2023-10-08T13:08:12;100653.66;;;20.25;100.00
51452;BME280;37521;52.020;-1.740;2023-10-08T13:10:41;100649.59;;;20.08;100.00